sensor_id;sensor_type;location;lat;lon;timestamp;temperature;humidity
31207;DHT22;17834;52.992;8.856;2022-07-04T00:02:24;12.90;99.90
31207;DHT22;17834;52.992;8.856;2022-07-04T00:04:50;13.00;99.90
31207;DHT22;17834;52.992;8.856;2022-07-04T00:07:15;12.90;99.90
31207;DHT22;17834;52.992;8.856;2022-07-04T00:09:41;12.90;99.90
31207;DHT22;17834;52.992;8.856;2022-07-04T00:12:08;12.90;99.90
31207;DHT22;17834;52.992;8.856;2022-07-04T00:14:34;12.90;99.90
31207;DHT22;17834;52.992;8.856;2022-07-04T00:17:00;13.00;99.90
31207;DHT22;17834;52.992;8.856;2022-07-04T00:19:25;12.90;99.90
31207;DHT22;17834;52.992;8.856;2022-07-04T00:21:51;12.90;99.90
31207;DHT22;17834;52.992;8.856;2022-07-04T00:24:17;13.00;99.90
31207;DHT22;17834;52.992;8.856;2022-07-04T00:26:42;12.90;99.90
31207;DHT22;17834;52.992;8.856;2022-07-04T00:29:08;12.90;99.90
31207;DHT22;17834;52.992;8.856;2022-07-04T00:31:33;12.90;99.90
31207;DHT22;17834;52.992;8.856;2022-07-04T00:33:59;12.80;99.90
31207;DHT22;17834;52.992;8.856;2022-07-04T00:36:25;12.80;99.90
31207;DHT22;17834;52.992;8.856;2022-07-04T00:38:50;12.90;99.90
31207;DHT22;17834;52.992;8.856;2022-07-04T00:41:16;12.70;99.90
31207;DHT22;17834;52.992;8.856;2022-07-04T00:43:42;12.70;99.90
31207;DHT22;17834;52.992;8.856;2022-07-04T00:46:07;12.70;99.90
31207;DHT22;17834;52.992;8.856;2022-07-04T00:48:33;12.70;99.90
31207;DHT22;17834;52.992;8.856;2022-07-04T00:51:00;12.60;99.90
31207;DHT22;17834;52.992;8.856;2022-07-04T00:53:26;12.70;99.90
31207;DHT22;17834;52.992;8.856;2022-07-04T00:55:52;12.70;99.90
31207;DHT22;17834;52.992;8.856;2022-07-04T00:58:22;12.70;99.90
31207;DHT22;17834;52.992;8.856;2022-07-04T01:00:49;12.60;99.90
31207;DHT22;17834;52.992;8.856;2022-07-04T01:03:15;12.60;99.90
31207;DHT22;17834;52.992;8.856;2022-07-04T01:05:42;12.60;99.90
31207;DHT22;17834;52.992;8.856;2022-07-04T01:08:08;12.60;99.90
31207;DHT22;17834;52.992;8.856;2022-07-04T01:10:34;12.50;99.90
31207;DHT22;17834;52.992;8.856;2022-07-04T01:12:59;12.60;99.90
31207;DHT22;17834;52.992;8.856;2022-07-04T01:15:25;12.50;99.90
31207;DHT22;17834;52.992;8.856;2022-07-04T01:17:50;12.40;99.90
31207;DHT22;17834;52.992;8.856;2022-07-04T01:20:16;12.50;99.90
31207;DHT22;17834;52.992;8.856;2022-07-04T01:22:42;12.40;99.90
31207;DHT22;17834;52.992;8.856;2022-07-04T01:25:09;12.40;99.90
31207;DHT22;17834;52.992;8.856;2022-07-04T01:27:34;12.30;99.90
31207;DHT22;17834;52.992;8.856;2022-07-04T01:30:00;12.30;99.90
31207;DHT22;17834;52.992;8.856;2022-07-04T01:32:26;12.30;99.90
31207;DHT22;17834;52.992;8.856;2022-07-04T01:34:52;12.30;99.90
31207;DHT22;17834;52.992;8.856;2022-07-04T01:37:18;12.30;99.90
31207;DHT22;17834;52.992;8.856;2022-07-04T01:39:44;12.20;99.90
31207;DHT22;17834;52.992;8.856;2022-07-04T01:42:09;12.20;99.90
31207;DHT22;17834;52.992;8.856;2022-07-04T01:44:36;12.20;99.90
31207;DHT22;17834;52.992;8.856;2022-07-04T01:47:02;12.20;99.90
31207;DHT22;17834;52.992;8.856;2022-07-04T01:49:27;12.20;99.90
31207;DHT22;17834;52.992;8.856;2022-07-04T01:51:53;12.20;99.90
31207;DHT22;17834;52.992;8.856;2022-07-04T01:54:19;12.10;99.90
31207;DHT22;17834;52.992;8.856;2022-07-04T01:56:45;12.10;99.90
31207;DHT22;17834;52.992;8.856;2022-07-04T01:59:11;12.10;99.90
31207;DHT22;17834;52.992;8.856;2022-07-04T02:01:37;12.10;99.90
31207;DHT22;17834;52.992;8.856;2022-07-04T02:04:05;12.20;99.90
31207;DHT22;17834;52.992;8.856;2022-07-04T02:06:32;12.00;99.90
31207;DHT22;17834;52.992;8.856;2022-07-04T02:08:57;12.00;99.90
31207;DHT22;17834;52.992;8.856;2022-07-04T02:11:45;12.00;99.90
31207;DHT22;17834;52.992;8.856;2022-07-04T02:14:31;12.00;99.90
31207;DHT22;17834;52.992;8.856;2022-07-04T02:16:58;11.90;99.90
31207;DHT22;17834;52.992;8.856;2022-07-04T02:19:23;12.00;99.90
31207;DHT22;17834;52.992;8.856;2022-07-04T02:21:49;12.00;99.90
31207;DHT22;17834;52.992;8.856;2022-07-04T02:24:15;11.90;99.90
31207;DHT22;17834;52.992;8.856;2022-07-04T02:26:40;11.80;99.90
31207;DHT22;17834;52.992;8.856;2022-07-04T02:29:06;11.80;99.90
31207;DHT22;17834;52.992;8.856;2022-07-04T02:31:32;11.80;99.90
31207;DHT22;17834;52.992;8.856;2022-07-04T02:33:57;11.80;99.90
31207;DHT22;17834;52.992;8.856;2022-07-04T02:36:23;11.80;99.90
31207;DHT22;17834;52.992;8.856;2022-07-04T02:38:48;11.70;99.90
31207;DHT22;17834;52.992;8.856;2022-07-04T02:41:14;11.70;99.90
31207;DHT22;17834;52.992;8.856;2022-07-04T02:43:39;11.70;99.90
31207;DHT22;17834;52.992;8.856;2022-07-04T02:46:05;11.60;99.90
31207;DHT22;17834;52.992;8.856;2022-07-04T02:48:31;11.60;99.90
31207;DHT22;17834;52.992;8.856;2022-07-04T02:50:56;11.60;99.90
31207;DHT22;17834;52.992;8.856;2022-07-04T02:53:22;11.50;99.90
31207;DHT22;17834;52.992;8.856;2022-07-04T02:55:47;11.60;99.90
31207;DHT22;17834;52.992;8.856;2022-07-04T02:58:13;11.50;99.90
31207;DHT22;17834;52.992;8.856;2022-07-04T03:00:38;11.50;99.90
31207;DHT22;17834;52.992;8.856;2022-07-04T03:03:04;11.50;99.90
31207;DHT22;17834;52.992;8.856;2022-07-04T03:05:30;11.40;99.90
31207;DHT22;17834;52.992;8.856;2022-07-04T03:07:57;11.40;99.90
31207;DHT22;17834;52.992;8.856;2022-07-04T03:10:23;11.40;99.90
31207;DHT22;17834;52.992;8.856;2022-07-04T03:12:49;11.40;99.90
31207;DHT22;17834;52.992;8.856;2022-07-04T03:15:14;11.40;99.90
31207;DHT22;17834;52.992;8.856;2022-07-04T03:17:40;11.40;99.90
31207;DHT22;17834;52.992;8.856;2022-07-04T03:20:06;11.40;99.90
31207;DHT22;17834;52.992;8.856;2022-07-04T03:22:32;11.40;99.90
31207;DHT22;17834;52.992;8.856;2022-07-04T03:24:58;11.30;99.90
31207;DHT22;17834;52.992;8.856;2022-07-04T03:27:23;11.40;99.90
31207;DHT22;17834;52.992;8.856;2022-07-04T03:29:49;11.40;99.90
31207;DHT22;17834;52.992;8.856;2022-07-04T03:32:15;11.50;99.90
31207;DHT22;17834;52.992;8.856;2022-07-04T03:34:40;11.50;99.90
31207;DHT22;17834;52.992;8.856;2022-07-04T03:37:06;11.40;99.90
31207;DHT22;17834;52.992;8.856;2022-07-04T03:39:31;11.40;99.90
31207;DHT22;17834;52.992;8.856;2022-07-04T03:41:57;11.50;99.90
31207;DHT22;17834;52.992;8.856;2022-07-04T03:44:23;11.40;99.90
31207;DHT22;17834;52.992;8.856;2022-07-04T03:46:48;11.50;99.90
31207;DHT22;17834;52.992;8.856;2022-07-04T03:49:14;11.60;99.90
31207;DHT22;17834;52.992;8.856;2022-07-04T03:51:39;11.50;99.90
31207;DHT22;17834;52.992;8.856;2022-07-04T03:54:05;11.60;99.90
31207;DHT22;17834;52.992;8.856;2022-07-04T03:56:30;11.70;99.90
31207;DHT22;17834;52.992;8.856;2022-07-04T03:58:56;11.60;99.90
31207;DHT22;17834;52.992;8.856;2022-07-04T04:01:22;11.70;99.90
31207;DHT22;17834;52.992;8.856;2022-07-04T04:03:47;11.70;99.90
31207;DHT22;17834;52.992;8.856;2022-07-04T04:06:31;11.70;99.90
31207;DHT22;17834;52.992;8.856;2022-07-04T04:08:57;11.80;99.90
31207;DHT22;17834;52.992;8.856;2022-07-04T04:11:23;11.90;99.90
31207;DHT22;17834;52.992;8.856;2022-07-04T04:13:49;12.00;99.90
31207;DHT22;17834;52.992;8.856;2022-07-04T04:16:14;12.00;99.90
31207;DHT22;17834;52.992;8.856;2022-07-04T04:18:40;12.20;99.90
31207;DHT22;17834;52.992;8.856;2022-07-04T04:21:06;12.20;99.90
31207;DHT22;17834;52.992;8.856;2022-07-04T04:23:32;12.30;99.90
31207;DHT22;17834;52.992;8.856;2022-07-04T04:25:57;12.50;99.90
31207;DHT22;17834;52.992;8.856;2022-07-04T04:28:23;12.60;99.90
31207;DHT22;17834;52.992;8.856;2022-07-04T04:30:49;12.70;99.90
31207;DHT22;17834;52.992;8.856;2022-07-04T04:33:15;13.00;99.90
31207;DHT22;17834;52.992;8.856;2022-07-04T04:35:41;13.30;99.90
31207;DHT22;17834;52.992;8.856;2022-07-04T04:38:06;14.20;99.90
31207;DHT22;17834;52.992;8.856;2022-07-04T04:40:32;15.10;99.90
31207;DHT22;17834;52.992;8.856;2022-07-04T04:42:57;16.30;99.90
31207;DHT22;17834;52.992;8.856;2022-07-04T04:45:23;17.30;99.90
31207;DHT22;17834;52.992;8.856;2022-07-04T04:47:48;18.20;99.90
31207;DHT22;17834;52.992;8.856;2022-07-04T04:50:14;19.10;99.90
31207;DHT22;17834;52.992;8.856;2022-07-04T04:52:41;20.00;99.90
31207;DHT22;17834;52.992;8.856;2022-07-04T04:55:07;21.10;99.90
31207;DHT22;17834;52.992;8.856;2022-07-04T04:57:33;22.10;99.90
31207;DHT22;17834;52.992;8.856;2022-07-04T04:59:59;23.20;96.40
31207;DHT22;17834;52.992;8.856;2022-07-04T05:02:25;24.00;90.40
31207;DHT22;17834;52.992;8.856;2022-07-04T05:04:50;24.60;83.40
31207;DHT22;17834;52.992;8.856;2022-07-04T05:07:16;24.40;78.00
31207;DHT22;17834;52.992;8.856;2022-07-04T05:09:42;23.50;80.70
31207;DHT22;17834;52.992;8.856;2022-07-04T05:12:08;22.30;86.10
31207;DHT22;17834;52.992;8.856;2022-07-04T05:14:33;21.10;89.60
31207;DHT22;17834;52.992;8.856;2022-07-04T05:16:59;20.10;91.60
31207;DHT22;17834;52.992;8.856;2022-07-04T05:19:24;19.40;95.70
31207;DHT22;17834;52.992;8.856;2022-07-04T05:21:50;19.10;98.80
31207;DHT22;17834;52.992;8.856;2022-07-04T05:24:17;18.70;99.80
31207;DHT22;17834;52.992;8.856;2022-07-04T05:26:42;18.10;99.90
31207;DHT22;17834;52.992;8.856;2022-07-04T05:29:08;17.70;99.90
31207;DHT22;17834;52.992;8.856;2022-07-04T05:31:33;17.40;99.90
31207;DHT22;17834;52.992;8.856;2022-07-04T05:33:59;17.20;99.90
31207;DHT22;17834;52.992;8.856;2022-07-04T05:36:26;17.00;99.90
31207;DHT22;17834;52.992;8.856;2022-07-04T05:38:52;17.10;99.90
31207;DHT22;17834;52.992;8.856;2022-07-04T05:41:17;17.50;99.90
31207;DHT22;17834;52.992;8.856;2022-07-04T05:43:43;17.70;99.90
31207;DHT22;17834;52.992;8.856;2022-07-04T05:46:09;17.90;99.90
31207;DHT22;17834;52.992;8.856;2022-07-04T05:48:34;18.30;99.90
31207;DHT22;17834;52.992;8.856;2022-07-04T05:51:00;19.60;99.90
31207;DHT22;17834;52.992;8.856;2022-07-04T05:53:27;21.40;99.90
31207;DHT22;17834;52.992;8.856;2022-07-04T05:55:53;23.20;97.30
31207;DHT22;17834;52.992;8.856;2022-07-04T05:58:18;24.90;85.70
31207;DHT22;17834;52.992;8.856;2022-07-04T06:00:44;26.00;75.50
31207;DHT22;17834;52.992;8.856;2022-07-04T06:03:09;26.40;70.00
31207;DHT22;17834;52.992;8.856;2022-07-04T06:05:35;26.80;66.60
31207;DHT22;17834;52.992;8.856;2022-07-04T06:08:01;27.40;65.90
31207;DHT22;17834;52.992;8.856;2022-07-04T06:10:27;28.20;62.80
31207;DHT22;17834;52.992;8.856;2022-07-04T06:12:52;28.70;61.20
31207;DHT22;17834;52.992;8.856;2022-07-04T06:15:18;29.00;57.20
31207;DHT22;17834;52.992;8.856;2022-07-04T06:17:43;29.30;55.90
31207;DHT22;17834;52.992;8.856;2022-07-04T06:20:09;29.40;54.90
31207;DHT22;17834;52.992;8.856;2022-07-04T06:22:43;29.40;54.10
31207;DHT22;17834;52.992;8.856;2022-07-04T06:25:16;29.60;53.90
31207;DHT22;17834;52.992;8.856;2022-07-04T06:27:43;29.60;53.50
31207;DHT22;17834;52.992;8.856;2022-07-04T06:30:10;29.60;53.70
31207;DHT22;17834;52.992;8.856;2022-07-04T06:32:47;30.00;54.00
31207;DHT22;17834;52.992;8.856;2022-07-04T06:35:13;30.30;51.70
31207;DHT22;17834;52.992;8.856;2022-07-04T06:37:58;30.00;51.90
31207;DHT22;17834;52.992;8.856;2022-07-04T06:40:24;29.80;51.60
31207;DHT22;17834;52.992;8.856;2022-07-04T06:42:50;30.30;50.10
31207;DHT22;17834;52.992;8.856;2022-07-04T06:45:16;30.50;50.70
31207;DHT22;17834;52.992;8.856;2022-07-04T06:47:41;30.30;50.10
31207;DHT22;17834;52.992;8.856;2022-07-04T06:50:07;30.00;50.50
31207;DHT22;17834;52.992;8.856;2022-07-04T06:52:34;30.20;52.20
31207;DHT22;17834;52.992;8.856;2022-07-04T06:54:59;30.30;50.10
31207;DHT22;17834;52.992;8.856;2022-07-04T06:57:25;30.90;50.30
31207;DHT22;17834;52.992;8.856;2022-07-04T06:59:51;31.20;49.70
31207;DHT22;17834;52.992;8.856;2022-07-04T07:02:16;31.20;48.80
31207;DHT22;17834;52.992;8.856;2022-07-04T07:04:42;30.60;48.80
31207;DHT22;17834;52.992;8.856;2022-07-04T07:07:08;30.20;49.30
31207;DHT22;17834;52.992;8.856;2022-07-04T07:09:34;30.00;49.00
31207;DHT22;17834;52.992;8.856;2022-07-04T07:12:00;30.00;48.90
31207;DHT22;17834;52.992;8.856;2022-07-04T07:14:26;30.10;48.90
31207;DHT22;17834;52.992;8.856;2022-07-04T07:16:51;30.20;49.00
31207;DHT22;17834;52.992;8.856;2022-07-04T07:19:17;30.40;49.20
31207;DHT22;17834;52.992;8.856;2022-07-04T07:21:43;30.60;48.00
31207;DHT22;17834;52.992;8.856;2022-07-04T07:24:08;30.80;48.00
31207;DHT22;17834;52.992;8.856;2022-07-04T07:26:34;30.90;47.70
31207;DHT22;17834;52.992;8.856;2022-07-04T07:28:59;30.90;46.70
31207;DHT22;17834;52.992;8.856;2022-07-04T07:31:25;30.80;47.90
31207;DHT22;17834;52.992;8.856;2022-07-04T07:33:50;31.10;46.80
31207;DHT22;17834;52.992;8.856;2022-07-04T07:36:16;31.00;48.80
31207;DHT22;17834;52.992;8.856;2022-07-04T07:38:42;31.00;46.30
31207;DHT22;17834;52.992;8.856;2022-07-04T07:41:08;31.10;46.90
31207;DHT22;17834;52.992;8.856;2022-07-04T07:43:34;31.10;48.20
31207;DHT22;17834;52.992;8.856;2022-07-04T07:46:00;31.20;46.60
31207;DHT22;17834;52.992;8.856;2022-07-04T07:48:25;31.10;44.60
31207;DHT22;17834;52.992;8.856;2022-07-04T07:50:52;31.10;46.70
31207;DHT22;17834;52.992;8.856;2022-07-04T07:53:18;31.30;45.40
31207;DHT22;17834;52.992;8.856;2022-07-04T07:55:44;31.30;45.00
31207;DHT22;17834;52.992;8.856;2022-07-04T07:58:09;31.20;45.50
31207;DHT22;17834;52.992;8.856;2022-07-04T08:00:35;30.20;46.00
31207;DHT22;17834;52.992;8.856;2022-07-04T08:03:00;28.90;48.80
31207;DHT22;17834;52.992;8.856;2022-07-04T08:05:44;27.70;50.10
31207;DHT22;17834;52.992;8.856;2022-07-04T08:08:10;26.30;52.80
31207;DHT22;17834;52.992;8.856;2022-07-04T08:10:36;25.40;56.80
31207;DHT22;17834;52.992;8.856;2022-07-04T08:13:03;24.70;58.10
31207;DHT22;17834;52.992;8.856;2022-07-04T08:15:29;24.20;59.20
31207;DHT22;17834;52.992;8.856;2022-07-04T08:17:55;23.70;59.80
31207;DHT22;17834;52.992;8.856;2022-07-04T08:20:20;23.50;59.10
31207;DHT22;17834;52.992;8.856;2022-07-04T08:22:46;23.20;60.60
31207;DHT22;17834;52.992;8.856;2022-07-04T08:25:11;23.20;61.20
31207;DHT22;17834;52.992;8.856;2022-07-04T08:27:39;23.00;61.80
31207;DHT22;17834;52.992;8.856;2022-07-04T08:30:05;22.80;63.40
31207;DHT22;17834;52.992;8.856;2022-07-04T08:32:31;23.00;64.00
31207;DHT22;17834;52.992;8.856;2022-07-04T08:34:57;23.10;63.60
31207;DHT22;17834;52.992;8.856;2022-07-04T08:37:23;23.20;62.60
31207;DHT22;17834;52.992;8.856;2022-07-04T08:39:49;23.40;61.20
31207;DHT22;17834;52.992;8.856;2022-07-04T08:42:19;23.30;62.00
31207;DHT22;17834;52.992;8.856;2022-07-04T08:44:51;23.10;62.60
31207;DHT22;17834;52.992;8.856;2022-07-04T08:47:22;23.00;62.10
31207;DHT22;17834;52.992;8.856;2022-07-04T08:50:07;22.90;61.30
31207;DHT22;17834;52.992;8.856;2022-07-04T08:52:37;22.70;62.60
31207;DHT22;17834;52.992;8.856;2022-07-04T08:55:05;22.40;62.50
31207;DHT22;17834;52.992;8.856;2022-07-04T08:57:50;22.30;64.20
31207;DHT22;17834;52.992;8.856;2022-07-04T09:00:36;22.20;63.90
31207;DHT22;17834;52.992;8.856;2022-07-04T09:03:03;22.30;65.80
31207;DHT22;17834;52.992;8.856;2022-07-04T09:05:29;22.50;65.30
31207;DHT22;17834;52.992;8.856;2022-07-04T09:07:55;22.70;64.90
31207;DHT22;17834;52.992;8.856;2022-07-04T09:10:22;23.00;62.90
31207;DHT22;17834;52.992;8.856;2022-07-04T09:12:47;23.00;62.50
31207;DHT22;17834;52.992;8.856;2022-07-04T09:15:14;22.90;63.10
31207;DHT22;17834;52.992;8.856;2022-07-04T09:17:40;22.80;62.50
31207;DHT22;17834;52.992;8.856;2022-07-04T09:20:20;22.80;62.50
31207;DHT22;17834;52.992;8.856;2022-07-04T09:22:47;23.00;63.80
31207;DHT22;17834;52.992;8.856;2022-07-04T09:25:14;23.10;64.00
31207;DHT22;17834;52.992;8.856;2022-07-04T09:27:42;23.30;62.50
31207;DHT22;17834;52.992;8.856;2022-07-04T09:30:11;23.40;62.90
31207;DHT22;17834;52.992;8.856;2022-07-04T09:35:05;23.50;62.30
31207;DHT22;17834;52.992;8.856;2022-07-04T09:37:43;23.50;61.90
31207;DHT22;17834;52.992;8.856;2022-07-04T09:40:20;23.50;62.20
31207;DHT22;17834;52.992;8.856;2022-07-04T09:42:46;23.60;63.20
31207;DHT22;17834;52.992;8.856;2022-07-04T09:45:11;23.70;62.30
31207;DHT22;17834;52.992;8.856;2022-07-04T09:47:39;23.90;62.70
31207;DHT22;17834;52.992;8.856;2022-07-04T09:50:12;24.10;62.00
31207;DHT22;17834;52.992;8.856;2022-07-04T09:55:11;24.40;61.40
31207;DHT22;17834;52.992;8.856;2022-07-04T09:57:36;24.40;61.00
31207;DHT22;17834;52.992;8.856;2022-07-04T10:02:44;24.10;60.50
31207;DHT22;17834;52.992;8.856;2022-07-04T10:05:10;24.00;61.10
31207;DHT22;17834;52.992;8.856;2022-07-04T10:07:38;23.90;59.70
31207;DHT22;17834;52.992;8.856;2022-07-04T10:10:29;23.80;61.30
31207;DHT22;17834;52.992;8.856;2022-07-04T10:12:59;23.70;62.10
31207;DHT22;17834;52.992;8.856;2022-07-04T10:15:25;23.70;61.90
31207;DHT22;17834;52.992;8.856;2022-07-04T10:17:51;23.50;60.70
31207;DHT22;17834;52.992;8.856;2022-07-04T10:20:17;23.50;59.50
31207;DHT22;17834;52.992;8.856;2022-07-04T10:22:43;23.40;59.80
31207;DHT22;17834;52.992;8.856;2022-07-04T10:25:09;23.40;60.40
31207;DHT22;17834;52.992;8.856;2022-07-04T10:27:36;23.40;61.50
31207;DHT22;17834;52.992;8.856;2022-07-04T10:30:04;23.40;61.60
31207;DHT22;17834;52.992;8.856;2022-07-04T10:32:31;23.50;62.00
31207;DHT22;17834;52.992;8.856;2022-07-04T10:34:57;23.80;61.00
31207;DHT22;17834;52.992;8.856;2022-07-04T10:37:23;23.90;59.80
31207;DHT22;17834;52.992;8.856;2022-07-04T10:39:49;24.10;59.80
31207;DHT22;17834;52.992;8.856;2022-07-04T10:42:24;24.20;58.60
31207;DHT22;17834;52.992;8.856;2022-07-04T10:44:50;24.00;60.00
31207;DHT22;17834;52.992;8.856;2022-07-04T10:47:23;23.90;59.90
31207;DHT22;17834;52.992;8.856;2022-07-04T10:49:51;23.80;59.90
31207;DHT22;17834;52.992;8.856;2022-07-04T10:52:17;24.00;60.10
31207;DHT22;17834;52.992;8.856;2022-07-04T10:54:44;24.00;60.30
31207;DHT22;17834;52.992;8.856;2022-07-04T10:57:21;24.10;60.50
31207;DHT22;17834;52.992;8.856;2022-07-04T11:02:22;24.20;61.90
31207;DHT22;17834;52.992;8.856;2022-07-04T11:04:51;24.30;61.00
31207;DHT22;17834;52.992;8.856;2022-07-04T11:07:55;24.40;59.90
31207;DHT22;17834;52.992;8.856;2022-07-04T11:18:13;23.80;60.60
31207;DHT22;17834;52.992;8.856;2022-07-04T11:20:44;23.80;60.30
31207;DHT22;17834;52.992;8.856;2022-07-04T11:23:14;23.80;59.60
31207;DHT22;17834;52.992;8.856;2022-07-04T11:25:44;23.80;60.60
31207;DHT22;17834;52.992;8.856;2022-07-04T11:28:20;23.80;60.40
31207;DHT22;17834;52.992;8.856;2022-07-04T11:30:51;23.90;59.10
31207;DHT22;17834;52.992;8.856;2022-07-04T11:33:18;24.00;58.40
31207;DHT22;17834;52.992;8.856;2022-07-04T11:35:44;24.30;58.80
31207;DHT22;17834;52.992;8.856;2022-07-04T11:38:23;24.40;58.10
31207;DHT22;17834;52.992;8.856;2022-07-04T11:40:49;24.30;58.30
31207;DHT22;17834;52.992;8.856;2022-07-04T11:43:33;24.50;58.20
31207;DHT22;17834;52.992;8.856;2022-07-04T11:46:17;24.50;56.80
31207;DHT22;17834;52.992;8.856;2022-07-04T11:48:42;24.60;55.50
31207;DHT22;17834;52.992;8.856;2022-07-04T11:51:18;24.50;57.10
31207;DHT22;17834;52.992;8.856;2022-07-04T11:53:44;24.40;56.70
31207;DHT22;17834;52.992;8.856;2022-07-04T11:56:09;24.30;57.80
31207;DHT22;17834;52.992;8.856;2022-07-04T11:58:39;24.20;57.80
31207;DHT22;17834;52.992;8.856;2022-07-04T12:01:05;24.10;57.30
31207;DHT22;17834;52.992;8.856;2022-07-04T12:03:33;24.10;57.50
31207;DHT22;17834;52.992;8.856;2022-07-04T12:06:02;24.10;58.30
31207;DHT22;17834;52.992;8.856;2022-07-04T12:08:28;24.20;58.80
31207;DHT22;17834;52.992;8.856;2022-07-04T12:10:54;24.40;58.60
31207;DHT22;17834;52.992;8.856;2022-07-04T12:13:20;24.50;57.70
31207;DHT22;17834;52.992;8.856;2022-07-04T12:15:48;24.60;59.20
31207;DHT22;17834;52.992;8.856;2022-07-04T12:18:18;24.50;56.10
31207;DHT22;17834;52.992;8.856;2022-07-04T12:20:44;24.20;58.50
31207;DHT22;17834;52.992;8.856;2022-07-04T12:23:10;23.90;58.30
31207;DHT22;17834;52.992;8.856;2022-07-04T12:25:37;23.70;59.60
31207;DHT22;17834;52.992;8.856;2022-07-04T12:28:11;23.60;60.10
31207;DHT22;17834;52.992;8.856;2022-07-04T12:30:48;23.50;59.50
31207;DHT22;17834;52.992;8.856;2022-07-04T12:33:18;23.70;61.10
31207;DHT22;17834;52.992;8.856;2022-07-04T12:35:57;23.80;59.60
31207;DHT22;17834;52.992;8.856;2022-07-04T12:41:00;24.00;58.20
31207;DHT22;17834;52.992;8.856;2022-07-04T12:43:49;24.20;57.00
31207;DHT22;17834;52.992;8.856;2022-07-04T12:46:32;24.30;58.60
31207;DHT22;17834;52.992;8.856;2022-07-04T12:49:00;24.70;57.10
31207;DHT22;17834;52.992;8.856;2022-07-04T12:51:29;24.90;57.60
31207;DHT22;17834;52.992;8.856;2022-07-04T12:53:56;25.30;56.60
31207;DHT22;17834;52.992;8.856;2022-07-04T12:56:33;25.60;55.70
31207;DHT22;17834;52.992;8.856;2022-07-04T12:59:13;25.90;54.80
31207;DHT22;17834;52.992;8.856;2022-07-04T13:01:40;26.10;55.20
31207;DHT22;17834;52.992;8.856;2022-07-04T13:04:05;26.30;52.70
31207;DHT22;17834;52.992;8.856;2022-07-04T13:06:31;26.20;53.50
31207;DHT22;17834;52.992;8.856;2022-07-04T13:08:57;26.20;53.10
31207;DHT22;17834;52.992;8.856;2022-07-04T13:11:25;26.20;52.00
31207;DHT22;17834;52.992;8.856;2022-07-04T13:14:10;26.20;52.90
31207;DHT22;17834;52.992;8.856;2022-07-04T13:16:35;26.20;52.50
31207;DHT22;17834;52.992;8.856;2022-07-04T13:19:01;26.30;52.60
31207;DHT22;17834;52.992;8.856;2022-07-04T13:21:27;26.40;52.40
31207;DHT22;17834;52.992;8.856;2022-07-04T13:23:52;26.60;52.60
31207;DHT22;17834;52.992;8.856;2022-07-04T13:26:18;26.70;52.90
31207;DHT22;17834;52.992;8.856;2022-07-04T13:28:44;26.70;52.20
31207;DHT22;17834;52.992;8.856;2022-07-04T13:31:10;26.50;52.80
31207;DHT22;17834;52.992;8.856;2022-07-04T13:33:36;26.30;53.90
31207;DHT22;17834;52.992;8.856;2022-07-04T13:36:01;26.30;54.20
31207;DHT22;17834;52.992;8.856;2022-07-04T13:38:27;26.20;54.20
31207;DHT22;17834;52.992;8.856;2022-07-04T13:40:54;26.10;54.60
31207;DHT22;17834;52.992;8.856;2022-07-04T13:43:23;25.90;55.10
31207;DHT22;17834;52.992;8.856;2022-07-04T13:45:48;25.70;55.30
31207;DHT22;17834;52.992;8.856;2022-07-04T13:48:14;25.40;55.10
31207;DHT22;17834;52.992;8.856;2022-07-04T13:50:40;25.20;55.60
31207;DHT22;17834;52.992;8.856;2022-07-04T13:53:07;24.90;56.60
31207;DHT22;17834;52.992;8.856;2022-07-04T13:55:33;24.80;58.00
31207;DHT22;17834;52.992;8.856;2022-07-04T13:58:02;24.80;57.70
31207;DHT22;17834;52.992;8.856;2022-07-04T14:00:27;24.80;56.70
31207;DHT22;17834;52.992;8.856;2022-07-04T14:02:53;24.80;56.60
31207;DHT22;17834;52.992;8.856;2022-07-04T14:05:18;24.60;56.20
31207;DHT22;17834;52.992;8.856;2022-07-04T14:07:44;24.60;57.60
31207;DHT22;17834;52.992;8.856;2022-07-04T14:10:10;24.80;58.10
31207;DHT22;17834;52.992;8.856;2022-07-04T14:12:36;25.10;58.60
31207;DHT22;17834;52.992;8.856;2022-07-04T14:15:02;25.20;57.30
31207;DHT22;17834;52.992;8.856;2022-07-04T14:17:29;25.30;57.70
31207;DHT22;17834;52.992;8.856;2022-07-04T14:19:54;25.20;57.90
31207;DHT22;17834;52.992;8.856;2022-07-04T14:22:21;25.00;57.70
31207;DHT22;17834;52.992;8.856;2022-07-04T14:24:47;24.90;58.00
31207;DHT22;17834;52.992;8.856;2022-07-04T14:27:12;24.80;58.30
31207;DHT22;17834;52.992;8.856;2022-07-04T14:29:38;24.70;58.40
31207;DHT22;17834;52.992;8.856;2022-07-04T14:32:04;24.60;59.20
31207;DHT22;17834;52.992;8.856;2022-07-04T14:34:29;24.60;58.70
31207;DHT22;17834;52.992;8.856;2022-07-04T14:36:55;24.70;59.00
31207;DHT22;17834;52.992;8.856;2022-07-04T14:39:21;24.90;57.80
31207;DHT22;17834;52.992;8.856;2022-07-04T14:41:49;25.00;58.50
31207;DHT22;17834;52.992;8.856;2022-07-04T14:44:15;25.20;56.70
31207;DHT22;17834;52.992;8.856;2022-07-04T14:46:40;25.20;57.20
31207;DHT22;17834;52.992;8.856;2022-07-04T14:49:06;25.20;57.20
31207;DHT22;17834;52.992;8.856;2022-07-04T14:51:31;25.10;57.20
31207;DHT22;17834;52.992;8.856;2022-07-04T14:53:57;24.80;57.50
31207;DHT22;17834;52.992;8.856;2022-07-04T14:56:23;24.70;57.40
31207;DHT22;17834;52.992;8.856;2022-07-04T14:58:48;24.60;58.30
31207;DHT22;17834;52.992;8.856;2022-07-04T15:01:14;24.60;57.90
31207;DHT22;17834;52.992;8.856;2022-07-04T15:03:39;24.70;58.00
31207;DHT22;17834;52.992;8.856;2022-07-04T15:06:05;24.70;57.70
31207;DHT22;17834;52.992;8.856;2022-07-04T15:08:31;24.70;58.30
31207;DHT22;17834;52.992;8.856;2022-07-04T15:10:56;24.80;57.70
31207;DHT22;17834;52.992;8.856;2022-07-04T15:13:22;24.70;58.40
31207;DHT22;17834;52.992;8.856;2022-07-04T15:15:47;24.80;58.90
31207;DHT22;17834;52.992;8.856;2022-07-04T15:18:13;25.00;58.40
31207;DHT22;17834;52.992;8.856;2022-07-04T15:20:39;25.00;57.40
31207;DHT22;17834;52.992;8.856;2022-07-04T15:23:23;24.80;57.60
31207;DHT22;17834;52.992;8.856;2022-07-04T15:26:08;24.80;57.50
31207;DHT22;17834;52.992;8.856;2022-07-04T15:28:34;24.70;57.60
31207;DHT22;17834;52.992;8.856;2022-07-04T15:31:00;24.70;57.40
31207;DHT22;17834;52.992;8.856;2022-07-04T15:33:28;24.70;57.00
31207;DHT22;17834;52.992;8.856;2022-07-04T15:35:56;24.80;57.50
31207;DHT22;17834;52.992;8.856;2022-07-04T15:38:22;24.80;57.70
31207;DHT22;17834;52.992;8.856;2022-07-04T15:40:48;24.90;56.50
31207;DHT22;17834;52.992;8.856;2022-07-04T15:43:14;24.70;55.90
31207;DHT22;17834;52.992;8.856;2022-07-04T15:45:40;24.60;56.10
31207;DHT22;17834;52.992;8.856;2022-07-04T15:48:05;24.50;57.00
31207;DHT22;17834;52.992;8.856;2022-07-04T15:50:31;24.40;55.40
31207;DHT22;17834;52.992;8.856;2022-07-04T15:52:57;24.20;56.60